Time;durP1;ratioP1;P1;durP2;ratioP2;P2;SDS_P1;SDS_P2;PMS_P1;PMS_P2;Temp;Humidity;BMP_temperature;BMP_pressure;BME280_temperature;BME280_humidity;BME280_pressure;Samples;Min_cycle;Max_cycle;Signal;HPM_P1;HPM_P2
2023/03/09 17:11:21;;;;;;;10.77;3.10;;;;;;;-39.50;83.24;92366.66;4196974;28;20244;-68
2023/03/09 17:13:49;;;;;;;8.03;3.40;;;;;;;-39.60;83.48;92360.47;4190448;28;20748;-66
2023/03/09 17:16:17;;;;;;;7.27;3.03;;;;;;;-39.60;82.82;92366.19;4180795;28;20602;-64
2023/03/09 17:18:44;;;;;;;6.87;2.70;;;;;;;-39.66;82.75;92355.81;4194193;28;20272;-70
2023/03/09 17:21:12;;;;;;;7.80;2.63;;;;;;;-39.63;83.66;92360.59;4193907;28;20349;-65
2023/03/09 17:23:39;;;;;;;7.67;3.00;;;;;;;-39.60;84.00;92370.25;4171192;28;20511;-67
2023/03/09 17:26:07;;;;;;;7.00;2.80;;;;;;;-39.52;83.13;92373.25;4187699;28;23752;-66
2023/03/09 17:28:34;;;;;;;6.17;2.50;;;;;;;-39.57;82.34;92365.28;4187758;28;25532;-67
2023/03/09 17:31:00;;;;;;;7.00;2.70;;;;;;;-39.58;82.10;92371.00;4178626;28;20257;-66
2023/03/09 17:33:27;;;;;;;4.87;2.03;;;;;;;-39.54;79.26;92374.94;4181065;28;20240;-63
2023/03/09 17:35:54;;;;;;;6.73;2.80;;;;;;;-39.48;78.53;92386.97;4197636;28;20758;-70
2023/03/09 17:38:21;;;;;;;5.63;2.50;;;;;;;-39.50;79.10;92376.44;4196208;28;20718;-68
2023/03/09 17:40:48;;;;;;;5.17;2.43;;;;;;;-39.45;78.03;92384.41;4180951;28;22183;-64
2023/03/09 17:43:16;;;;;;;6.77;2.50;;;;;;;-39.47;77.61;92378.78;4179377;28;20598;-64
2023/03/09 17:45:43;;;;;;;7.37;2.70;;;;;;;-39.40;78.38;92375.25;4180800;28;20246;-67
2023/03/09 17:48:11;;;;;;;7.97;2.73;;;;;;;-39.39;78.20;92380.94;4174914;28;21403;-66
2023/03/09 17:50:38;;;;;;;7.60;3.20;;;;;;;-39.31;77.92;92371.69;4192651;28;20240;-66
2023/03/09 17:53:09;;;;;;;7.17;2.17;;;;;;;-39.43;75.24;92363.16;4192212;28;26543;-68
2023/03/09 17:55:39;;;;;;;7.00;2.80;;;;;;;-39.45;74.14;92364.84;4195490;28;21943;-66
2023/03/09 17:58:05;;;;;;;4.87;1.93;;;;;;;-39.43;73.95;92368.03;4171962;28;22620;-66
2023/03/09 18:00:33;;;;;;;5.93;1.90;;;;;;;-39.40;73.52;92372.81;4186267;28;20249;-64
2023/03/09 18:03:04;;;;;;;4.77;2.10;;;;;;;-39.35;74.58;92371.00;4167276;28;20280;-66
2023/03/09 18:05:36;;;;;;;5.53;2.13;;;;;;;-39.29;75.33;92364.28;4175616;28;20249;-66
2023/03/09 18:08:04;;;;;;;4.80;2.07;;;;;;;-39.31;75.23;92361.88;4194767;28;20233;-68
2023/03/09 18:10:32;;;;;;;6.77;2.27;;;;;;;-39.29;74.78;92354.50;4188759;28;25767;-66
2023/03/09 18:12:59;;;;;;;4.47;2.13;;;;;;;-39.38;74.27;92354.00;4194350;28;20303;-65
2023/03/09 18:15:28;;;;;;;4.53;2.23;;;;;;;-39.34;74.34;92362.78;4210182;28;20436;-67
2023/03/09 18:17:56;;;;;;;5.97;2.70;;;;;;;-39.48;73.42;92364.97;4200070;28;20252;-70
2023/03/09 18:20:22;;;;;;;7.00;2.60;;;;;;;-39.48;74.28;92364.97;4197396;28;20264;-66
2023/03/09 18:22:49;;;;;;;5.57;2.40;;;;;;;-39.50;74.16;92364.22;4186334;28;20336;-69
2023/03/09 18:25:16;;;;;;;9.23;2.87;;;;;;;-39.49;74.33;92358.47;4204099;28;21482;-63
2023/03/09 18:27:42;;;;;;;6.30;2.33;;;;;;;-39.51;75.37;92367.50;4183538;28;20236;-67
2023/03/09 18:30:10;;;;;;;8.43;3.23;;;;;;;-39.47;75.17;92375.53;4208163;28;21576;-65
2023/03/09 18:32:37;;;;;;;9.17;3.90;;;;;;;-39.50;75.00;92376.44;4218299;28;20243;-70
2023/03/09 18:35:05;;;;;;;8.97;2.87;;;;;;;-39.56;75.20;92381.53;4199939;28;20297;-64
2023/03/09 18:37:32;;;;;;;6.90;3.37;;;;;;;-39.59;74.65;92384.09;4206475;28;20253;-67
2023/03/09 18:39:59;;;;;;;10.60;3.47;;;;;;;-39.57;74.63;92375.06;4205739;28;20346;-68
2023/03/09 18:42:28;;;;;;;8.20;3.40;;;;;;;-39.54;73.70;92376.59;4206405;28;20360;-67
2023/03/09 18:44:55;;;;;;;9.97;3.93;;;;;;;-39.54;74.42;92383.94;4184125;28;20241;-68
2023/03/09 18:47:25;;;;;;;7.23;2.80;;;;;;;-39.51;72.97;92396.06;4232756;28;20287;-72
2023/03/09 18:49:53;;;;;;;8.13;3.00;;;;;;;-39.46;73.15;92404.03;4212370;28;20509;-67
2023/03/09 18:52:20;;;;;;;9.47;2.90;;;;;;;-39.48;72.58;92408.19;4197866;28;20229;-69
2023/03/09 18:54:51;;;;;;;8.43;3.40;;;;;;;-39.45;72.31;92404.00;4199096;28;23773;-69
2023/03/09 18:57:19;;;;;;;11.43;3.70;;;;;;;-39.37;73.29;92411.88;4204692;28;20264;-69
2023/03/09 18:59:46;;;;;;;8.80;3.17;;;;;;;-39.38;72.46;92414.38;4178986;28;20239;-69
2023/03/09 19:02:15;;;;;;;14.13;3.90;;;;;;;-39.36;72.06;92417.56;4200413;28;20233;-68
2023/03/09 19:04:41;;;;;;;13.83;4.20;;;;;;;-39.34;72.63;92414.19;4213582;28;21461;-68
2023/03/09 19:07:08;;;;;;;9.00;3.90;;;;;;;-39.26;73.07;92421.25;4197329;28;21423;-64
2023/03/09 19:09:35;;;;;;;11.20;4.33;;;;;;;-39.34;72.43;92421.50;4196246;28;20564;-69
2023/03/09 19:12:01;;;;;;;10.17;3.53;;;;;;;-39.27;73.20;92414.75;4201485;28;20314;-70
2023/03/09 19:14:28;;;;;;;9.27;4.00;;;;;;;-39.30;72.63;92407.50;4208868;28;20435;-68
2023/03/09 19:16:55;;;;;;;14.63;4.90;;;;;;;-39.27;73.42;92409.06;4203767;28;20251;-67
2023/03/09 19:19:22;;;;;;;13.30;4.77;;;;;;;-39.28;74.00;92400.13;4182763;28;23228;-68
2023/03/09 19:21:48;;;;;;;18.60;5.40;;;;;;;-39.21;73.42;92403.94;4201820;28;20317;-66
2023/03/09 19:24:15;;;;;;;16.20;6.87;;;;;;;-39.28;73.91;92405.03;4199402;28;20414;-72
2023/03/09 19:26:41;;;;;;;16.23;4.90;;;;;;;-39.38;74.11;92400.47;4204996;28;20370;-67
2023/03/09 19:29:08;;;;;;;14.53;5.70;;;;;;;-39.29;73.77;92413.22;4196243;28;21226;-68
2023/03/09 19:31:35;;;;;;;17.13;5.33;;;;;;;-39.34;73.51;92396.25;4192022;28;21559;-64
2023/03/09 19:34:04;;;;;;;13.03;3.70;;;;;;;-39.37;72.88;92404.53;4185105;28;20328;-67
2023/03/09 19:36:31;;;;;;;10.23;3.63;;;;;;;-39.33;72.50;92413.31;4206231;28;20798;-67
2023/03/09 19:39:02;;;;;;;13.80;4.67;;;;;;;-39.35;72.30;92410.16;4195133;28;22034;-70
2023/03/09 19:41:31;;;;;;;15.97;5.20;;;;;;;-39.33;72.72;92402.72;4198253;28;20288;-70
2023/03/09 19:43:57;;;;;;;11.37;4.00;;;;;;;-39.30;72.41;92416.50;4207257;28;20232;-67
2023/03/09 19:46:25;;;;;;;8.97;3.47;;;;;;;-39.42;72.77;92408.75;4194188;28;20249;-68
2023/03/09 19:48:54;;;;;;;14.17;3.87;;;;;;;-39.43;73.04;92406.41;4190754;28;20275;-68
2023/03/09 19:51:22;;;;;;;14.50;4.23;;;;;;;-39.43;72.42;92402.28;4206242;28;20267;-70
2023/03/09 19:53:51;;;;;;;9.63;3.87;;;;;;;-39.40;72.40;92406.28;4193379;28;23062;-68
2023/03/09 19:56:23;;;;;;;12.80;4.27;;;;;;;-39.38;72.19;92415.16;4204539;28;21565;-66
2023/03/09 19:58:57;;;;;;;14.33;3.93;;;;;;;-39.41;71.91;92412.03;4174780;28;20231;-66
2023/03/09 20:01:31;;;;;;;13.70;4.30;;;;;;;-39.42;72.53;92423.44;4200903;28;20240;-68
2023/03/09 20:04:05;;;;;;;11.50;4.27;;;;;;;-39.38;73.43;92434.72;4202730;28;20234;-66
2023/03/09 20:06:36;;;;;;;10.50;4.27;;;;;;;-39.32;73.71;92450.84;4206327;28;20344;-65
2023/03/09 20:09:03;;;;;;;12.83;4.30;;;;;;;-39.30;73.79;92450.75;4196087;28;20304;-68
2023/03/09 20:11:29;;;;;;;10.73;4.67;;;;;;;-39.37;73.69;92447.75;4195174;28;20309;-67
2023/03/09 20:13:57;;;;;;;12.77;4.70;;;;;;;-39.25;74.26;92457.09;4195143;28;21795;-68
2023/03/09 20:16:26;;;;;;;11.07;4.57;;;;;;;-39.28;74.34;92437.63;4200439;28;20235;-64
2023/03/09 20:18:56;;;;;;;16.80;5.13;;;;;;;-39.28;74.75;92434.38;4195696;28;20240;-66
2023/03/09 20:21:24;;;;;;;12.93;4.67;;;;;;;-39.38;75.08;92429.03;4216252;28;22974;-66
2023/03/09 20:23:51;;;;;;;13.50;4.23;;;;;;;-39.36;75.37;92417.56;4214463;28;20640;-70
2023/03/09 20:26:22;;;;;;;10.20;4.07;;;;;;;-39.36;76.13;92403.66;4203701;28;22001;-69
2023/03/09 20:28:49;;;;;;;12.77;4.20;;;;;;;-39.45;76.36;92403.19;4195497;28;22127;-68
2023/03/09 20:31:17;;;;;;;11.97;4.23;;;;;;;-39.48;76.66;92410.66;4206429;28;20316;-65
2023/03/09 20:33:45;;;;;;;12.13;4.50;;;;;;;-39.47;77.25;92413.03;4200744;28;20315;-68
2023/03/09 20:36:11;;;;;;;12.27;4.63;;;;;;;-39.48;77.19;92406.56;4215842;28;23822;-66
2023/03/09 20:38:38;;;;;;;13.10;4.63;;;;;;;-39.50;77.58;92415.59;4195056;28;20310;-67
2023/03/09 20:41:06;;;;;;;12.80;4.63;;;;;;;-39.43;77.99;92407.19;4213176;28;23697;-69
2023/03/09 20:43:35;;;;;;;9.47;4.27;;;;;;;-39.40;77.78;92407.06;4196863;28;20237;-69
2023/03/09 20:46:03;;;;;;;11.13;4.10;;;;;;;-39.45;77.42;92401.53;4185881;28;20232;-65
2023/03/09 20:48:29;;;;;;;9.40;3.93;;;;;;;-39.44;77.92;92410.47;4199610;28;20571;-67
2023/03/09 20:50:56;;;;;;;11.97;4.40;;;;;;;-39.47;78.58;92408.13;4204637;28;23359;-69
2023/03/09 20:53:23;;;;;;;13.47;3.90;;;;;;;-39.48;79.60;92405.75;4207769;28;20689;-69
2023/03/09 20:55:50;;;;;;;15.27;4.63;;;;;;;-39.41;79.72;92405.47;4206251;28;20276;-69
2023/03/09 20:58:16;;;;;;;9.83;3.80;;;;;;;-39.45;81.18;92403.19;4202215;28;20252;-68
2023/03/09 21:00:43;;;;;;;10.97;4.23;;;;;;;-39.51;82.06;92387.06;4202170;28;20349;-69
2023/03/09 21:03:10;;;;;;;9.23;4.57;;;;;;;-39.59;83.23;92379.22;4180129;28;20228;-70
2023/03/09 21:05:37;;;;;;;11.90;4.60;;;;;;;-39.63;84.18;92380.94;4202822;28;20347;-65
2023/03/09 21:08:05;;;;;;;12.53;4.60;;;;;;;-39.60;84.97;92382.50;4205014;28;20677;-69
2023/03/09 21:10:33;;;;;;;13.87;4.77;;;;;;;-39.63;85.24;92375.28;4195510;28;25286;-66
2023/03/09 21:13:00;;;;;;;12.00;4.80;;;;;;;-39.65;86.01;92386.75;4181678;28;23029;-70
2023/03/09 21:15:27;;;;;;;12.90;4.23;;;;;;;-39.55;86.21;92385.59;4197458;28;20263;-66
2023/03/09 21:17:53;;;;;;;10.50;4.53;;;;;;;-39.57;86.57;92379.97;4202704;28;20261;-68
2023/03/09 21:20:21;;;;;;;14.27;4.80;;;;;;;-39.53;87.50;92378.19;4202341;28;20238;-65
2023/03/09 21:22:48;;;;;;;18.70;5.23;;;;;;;-39.50;87.20;92366.66;4189472;28;20659;-67
2023/03/09 21:25:17;;;;;;;16.67;5.73;;;;;;;-39.45;87.03;92374.63;4193305;28;21060;-68
2023/03/09 21:27:44;;;;;;;18.03;5.67;;;;;;;-39.43;87.33;92385.16;4186544;28;22634;-69
2023/03/09 21:30:13;;;;;;;11.17;5.40;;;;;;;-39.42;88.00;92384.31;4200749;28;21297;-65
2023/03/09 21:32:40;;;;;;;12.20;5.13;;;;;;;-39.42;89.08;92389.19;4187074;28;20245;-67
2023/03/09 21:35:08;;;;;;;12.37;5.13;;;;;;;-39.46;88.47;92377.13;4188868;28;20231;-68
2023/03/09 21:37:34;;;;;;;13.10;5.07;;;;;;;-39.51;89.89;92374.84;4223967;28;20544;-65
2023/03/09 21:40:01;;;;;;;13.30;5.60;;;;;;;-39.54;90.58;92379.06;4221865;28;20415;-68
2023/03/09 21:42:27;;;;;;;12.83;5.50;;;;;;;-39.51;90.35;92377.28;4197166;28;20256;-67
2023/03/09 21:44:55;;;;;;;15.20;6.00;;;;;;;-39.47;90.50;92368.19;4189347;28;20421;-66
2023/03/09 21:47:22;;;;;;;13.53;5.50;;;;;;;-39.54;91.03;92369.28;4192147;28;20244;-68
2023/03/09 21:49:48;;;;;;;15.90;6.00;;;;;;;-39.56;91.17;92367.66;4205032;28;25215;-67
2023/03/09 21:52:16;;;;;;;15.67;6.00;;;;;;;-39.46;90.85;92368.16;4210807;28;20228;-68
2023/03/09 21:54:42;;;;;;;18.13;6.07;;;;;;;-39.56;90.97;92372.56;4198460;28;21035;-70
2023/03/09 21:57:11;;;;;;;15.80;6.03;;;;;;;-39.55;91.00;92370.94;4187610;28;20246;-66
2023/03/09 21:59:38;;;;;;;12.50;5.70;;;;;;;-39.57;91.25;92367.72;4194706;28;21412;-67
2023/03/09 22:02:05;;;;;;;14.90;5.97;;;;;;;-39.50;90.42;92376.44;4196338;28;21901;-66
2023/03/09 22:04:34;;;;;;;17.50;5.40;;;;;;;-39.47;90.05;92371.44;4192516;28;21707;-66
2023/03/09 22:07:04;;;;;;;13.60;5.50;;;;;;;-39.51;89.41;92369.94;4204520;28;22095;-66
2023/03/09 22:09:30;;;;;;;12.63;5.40;;;;;;;-39.62;89.36;92359.75;4208519;28;20905;-69
2023/03/09 22:11:57;;;;;;;14.00;5.47;;;;;;;-39.67;89.70;92361.53;4199002;28;22583;-69
2023/03/09 22:14:24;;;;;;;11.70;5.10;;;;;;;-39.63;89.53;92355.72;4197944;28;20252;-65
2023/03/09 22:16:51;;;;;;;14.93;4.87;;;;;;;-39.61;89.42;92366.25;4221237;28;20232;-65
2023/03/09 22:19:22;;;;;;;17.13;5.40;;;;;;;-39.59;88.62;92358.00;4223635;28;25538;-67
2023/03/09 22:21:48;;;;;;;14.03;5.33;;;;;;;-39.61;88.29;92352.34;4208868;28;22384;-68
2023/03/09 22:24:15;;;;;;;12.57;5.60;;;;;;;-39.56;88.88;92352.19;4191665;28;22197;-70
2023/03/09 22:26:41;;;;;;;14.67;5.27;;;;;;;-39.53;88.09;92346.41;4219833;28;23709;-65
2023/03/09 22:29:08;;;;;;;14.17;5.80;;;;;;;-39.63;88.32;92343.47;4205126;28;20818;-67
2023/03/09 22:31:35;;;;;;;11.97;4.73;;;;;;;-39.57;88.18;92345.72;4221998;28;20307;-66
2023/03/09 22:34:03;;;;;;;11.43;4.30;;;;;;;-39.58;87.97;92339.22;4188397;28;20308;-66
2023/03/09 22:36:31;;;;;;;12.00;4.80;;;;;;;-39.62;87.89;92337.75;4207954;28;20716;-66
2023/03/09 22:38:58;;;;;;;11.60;5.00;;;;;;;-39.52;87.99;92333.34;4184029;28;21844;-64
2023/03/09 22:41:25;;;;;;;13.50;5.20;;;;;;;-39.63;88.75;92332.03;4196278;28;20243;-69
2023/03/09 22:43:52;;;;;;;12.10;5.03;;;;;;;-39.53;88.78;92332.53;4189313;28;21504;-66
2023/03/09 22:46:21;;;;;;;13.07;5.40;;;;;;;-39.57;89.19;92331.84;4189355;28;20598;-65
2023/03/09 22:48:48;;;;;;;11.87;5.43;;;;;;;-39.71;89.78;92313.63;4186397;28;20236;-66
2023/03/09 22:51:17;;;;;;;13.57;5.07;;;;;;;-39.71;90.20;92308.72;4186746;28;25470;-69
2023/03/09 22:53:44;;;;;;;15.77;5.50;;;;;;;-39.69;90.41;92304.59;4196680;28;20239;-66
2023/03/09 22:56:11;;;;;;;14.77;5.50;;;;;;;-39.76;90.74;92304.00;4193934;28;20241;-67
2023/03/09 22:58:38;;;;;;;11.83;5.60;;;;;;;-39.83;91.36;92300.22;4192857;28;21273;-70
2023/03/09 23:01:15;;;;;;;10.70;5.37;;;;;;;-39.89;91.83;92296.31;4192183;28;20661;-68
2023/03/09 23:03:41;;;;;;;16.33;5.07;;;;;;;-39.90;92.25;92289.84;4193866;28;20244;-68
2023/03/09 23:06:08;;;;;;;13.33;5.47;;;;;;;-39.91;92.31;92292.34;4188070;28;20237;-64
2023/03/09 23:08:34;;;;;;;12.10;5.23;;;;;;;-39.93;92.61;92284.25;4193956;28;20312;-68
2023/03/09 23:11:01;;;;;;;10.90;5.47;;;;;;;-40.02;92.87;92280.50;4197799;28;21534;-67
2023/03/09 23:13:28;;;;;;;15.00;5.07;;;;;;;-40.01;93.22;92277.19;4186388;28;20232;-70
2023/03/09 23:15:54;;;;;;;15.00;5.67;;;;;;;-39.99;93.11;92276.28;4192675;28;20431;-65
2023/03/09 23:18:34;;;;;;;15.73;5.90;;;;;;;-39.97;93.33;92283.59;4197736;28;20643;-67
2023/03/09 23:21:01;;;;;;;12.93;5.70;;;;;;;-39.95;93.40;92278.63;4189418;28;21152;-67
2023/03/09 23:23:27;;;;;;;15.73;6.30;;;;;;;-40.00;93.58;92274.72;4177950;28;20313;-65
2023/03/09 23:25:54;;;;;;;15.30;5.97;;;;;;;-39.96;93.17;92268.06;4189693;28;20729;-69
2023/03/09 23:28:20;;;;;;;13.77;6.30;;;;;;;-39.97;93.44;92278.69;4195498;28;20780;-68
2023/03/09 23:30:47;;;;;;;14.63;6.03;;;;;;;-40.00;93.98;92273.88;4180584;28;20237;-67
2023/03/09 23:33:13;;;;;;;14.93;6.80;;;;;;;-40.10;94.32;92262.84;4185663;28;21196;-67
2023/03/09 23:35:40;;;;;;;28.03;8.17;;;;;;;-40.06;94.52;92266.78;4193737;28;20645;-66
2023/03/09 23:38:09;;;;;;;24.30;8.47;;;;;;;-40.01;95.57;92258.44;4180564;28;21858;-67
2023/03/09 23:40:36;;;;;;;18.40;7.77;;;;;;;-39.97;95.34;92259.13;4202330;28;21536;-67
2023/03/09 23:43:03;;;;;;;17.07;7.00;;;;;;;-39.93;95.60;92255.72;4196491;28;20297;-68
2023/03/09 23:45:29;;;;;;;16.57;7.13;;;;;;;-40.02;96.77;92259.31;4194863;28;20301;-66
2023/03/09 23:47:58;;;;;;;16.40;7.10;;;;;;;-40.06;97.63;92255.38;4185627;28;23592;-69
2023/03/09 23:50:24;;;;;;;22.07;7.57;;;;;;;-39.96;97.69;92260.72;4177656;28;21628;-65
2023/03/09 23:52:51;;;;;;;20.80;7.93;;;;;;;-40.01;97.89;92255.19;4186213;28;20245;-64
2023/03/09 23:55:17;;;;;;;17.03;7.83;;;;;;;-40.03;98.95;92264.22;4197879;28;20419;-69
2023/03/09 23:57:44;;;;;;;21.17;8.20;;;;;;;-40.11;99.07;92246.63;4185654;28;21508;-64
